sensor_id;sensor_type;location;lat;lon;timestamp;P1;durP1;ratioP1;P2;durP2;ratioP2
10007;SDS011;5043;41.766;26.204;2023-07-29T00:00:36;5.57;;;2.08;;
10007;SDS011;5043;41.766;26.204;2023-07-29T00:03:01;4.68;;;2.40;;
10007;SDS011;5043;41.766;26.204;2023-07-29T00:05:27;3.15;;;2.30;;
10007;SDS011;5043;41.766;26.204;2023-07-29T00:07:52;3.10;;;2.20;;
10007;SDS011;5043;41.766;26.204;2023-07-29T00:10:17;6.95;;;2.35;;
10007;SDS011;5043;41.766;26.204;2023-07-29T00:12:44;3.33;;;2.00;;
10007;SDS011;5043;41.766;26.204;2023-07-29T00:15:10;6.47;;;2.20;;
10007;SDS011;5043;41.766;26.204;2023-07-29T00:17:36;4.03;;;1.95;;
10007;SDS011;5043;41.766;26.204;2023-07-29T00:20:01;5.10;;;1.73;;
10007;SDS011;5043;41.766;26.204;2023-07-29T00:22:30;2.88;;;2.20;;
10007;SDS011;5043;41.766;26.204;2023-07-29T00:24:55;3.60;;;2.20;;
10007;SDS011;5043;41.766;26.204;2023-07-29T00:27:22;4.00;;;1.88;;
10007;SDS011;5043;41.766;26.204;2023-07-29T00:29:49;2.42;;;1.90;;
10007;SDS011;5043;41.766;26.204;2023-07-29T00:32:14;5.25;;;2.28;;
10007;SDS011;5043;41.766;26.204;2023-07-29T00:34:40;3.25;;;2.17;;
10007;SDS011;5043;41.766;26.204;2023-07-29T00:37:05;3.78;;;2.10;;
10007;SDS011;5043;41.766;26.204;2023-07-29T00:39:31;2.58;;;2.38;;
10007;SDS011;5043;41.766;26.204;2023-07-29T00:41:57;6.22;;;2.35;;
10007;SDS011;5043;41.766;26.204;2023-07-29T00:44:23;7.55;;;2.10;;
10007;SDS011;5043;41.766;26.204;2023-07-29T00:46:49;2.67;;;1.88;;
10007;SDS011;5043;41.766;26.204;2023-07-29T00:49:17;3.75;;;2.10;;
10007;SDS011;5043;41.766;26.204;2023-07-29T00:51:42;4.03;;;1.80;;
10007;SDS011;5043;41.766;26.204;2023-07-29T00:54:08;3.85;;;2.00;;
10007;SDS011;5043;41.766;26.204;2023-07-29T00:56:35;8.18;;;1.95;;
10007;SDS011;5043;41.766;26.204;2023-07-29T00:59:01;3.28;;;2.25;;
10007;SDS011;5043;41.766;26.204;2023-07-29T01:01:30;4.97;;;2.92;;
10007;SDS011;5043;41.766;26.204;2023-07-29T01:03:59;7.03;;;2.13;;
10007;SDS011;5043;41.766;26.204;2023-07-29T01:09:20;1.73;;;1.63;;
10007;SDS011;5043;41.766;26.204;2023-07-29T01:14:39;2.17;;;1.80;;
10007;SDS011;5043;41.766;26.204;2023-07-29T01:17:22;3.78;;;2.17;;
10007;SDS011;5043;41.766;26.204;2023-07-29T01:20:00;2.08;;;1.70;;
10007;SDS011;5043;41.766;26.204;2023-07-29T01:22:30;2.67;;;1.98;;
10007;SDS011;5043;41.766;26.204;2023-07-29T01:24:58;5.05;;;1.98;;
10007;SDS011;5043;41.766;26.204;2023-07-29T01:27:24;2.42;;;1.98;;
10007;SDS011;5043;41.766;26.204;2023-07-29T01:29:49;3.13;;;2.10;;
10007;SDS011;5043;41.766;26.204;2023-07-29T01:32:17;2.00;;;1.80;;
10007;SDS011;5043;41.766;26.204;2023-07-29T01:35:08;1.95;;;1.75;;
10007;SDS011;5043;41.766;26.204;2023-07-29T01:37:48;2.42;;;1.60;;
10007;SDS011;5043;41.766;26.204;2023-07-29T01:40:16;2.17;;;1.98;;
10007;SDS011;5043;41.766;26.204;2023-07-29T01:42:43;4.93;;;1.88;;
10007;SDS011;5043;41.766;26.204;2023-07-29T01:45:10;4.13;;;2.20;;
10007;SDS011;5043;41.766;26.204;2023-07-29T01:47:36;4.03;;;2.03;;
10007;SDS011;5043;41.766;26.204;2023-07-29T01:50:03;2.17;;;1.98;;
10007;SDS011;5043;41.766;26.204;2023-07-29T01:52:29;2.10;;;2.00;;
10007;SDS011;5043;41.766;26.204;2023-07-29T01:54:54;2.42;;;2.17;;
10007;SDS011;5043;41.766;26.204;2023-07-29T01:57:19;3.78;;;2.42;;
10007;SDS011;5043;41.766;26.204;2023-07-29T01:59:45;3.63;;;1.92;;
10007;SDS011;5043;41.766;26.204;2023-07-29T02:02:10;2.20;;;2.00;;
10007;SDS011;5043;41.766;26.204;2023-07-29T02:04:36;2.80;;;2.10;;
10007;SDS011;5043;41.766;26.204;2023-07-29T02:07:02;2.63;;;2.28;;
10007;SDS011;5043;41.766;26.204;2023-07-29T02:09:27;2.72;;;2.10;;
10007;SDS011;5043;41.766;26.204;2023-07-29T02:11:53;3.35;;;1.70;;
10007;SDS011;5043;41.766;26.204;2023-07-29T02:14:18;6.63;;;2.33;;
10007;SDS011;5043;41.766;26.204;2023-07-29T02:16:43;2.60;;;2.10;;
10007;SDS011;5043;41.766;26.204;2023-07-29T02:19:09;2.25;;;2.10;;
10007;SDS011;5043;41.766;26.204;2023-07-29T02:21:34;3.50;;;2.25;;
10007;SDS011;5043;41.766;26.204;2023-07-29T02:24:00;2.30;;;2.20;;
10007;SDS011;5043;41.766;26.204;2023-07-29T02:26:25;2.03;;;1.77;;
10007;SDS011;5043;41.766;26.204;2023-07-29T02:28:52;4.63;;;2.22;;
10007;SDS011;5043;41.766;26.204;2023-07-29T02:31:19;6.32;;;2.00;;
10007;SDS011;5043;41.766;26.204;2023-07-29T02:33:49;4.03;;;2.15;;
10007;SDS011;5043;41.766;26.204;2023-07-29T02:36:15;2.45;;;2.20;;
10007;SDS011;5043;41.766;26.204;2023-07-29T02:38:41;3.97;;;2.00;;
10007;SDS011;5043;41.766;26.204;2023-07-29T02:41:10;3.17;;;2.17;;
10007;SDS011;5043;41.766;26.204;2023-07-29T02:43:37;6.38;;;2.33;;
10007;SDS011;5043;41.766;26.204;2023-07-29T02:46:03;3.35;;;2.15;;
10007;SDS011;5043;41.766;26.204;2023-07-29T02:48:29;3.65;;;2.22;;
10007;SDS011;5043;41.766;26.204;2023-07-29T02:50:55;4.20;;;2.13;;
10007;SDS011;5043;41.766;26.204;2023-07-29T02:53:24;2.15;;;1.95;;
10007;SDS011;5043;41.766;26.204;2023-07-29T02:55:49;4.43;;;1.95;;
10007;SDS011;5043;41.766;26.204;2023-07-29T02:58:15;2.08;;;1.90;;
10007;SDS011;5043;41.766;26.204;2023-07-29T03:00:40;2.88;;;1.98;;
10007;SDS011;5043;41.766;26.204;2023-07-29T03:03:09;2.28;;;1.92;;
10007;SDS011;5043;41.766;26.204;2023-07-29T03:05:35;2.00;;;1.80;;
10007;SDS011;5043;41.766;26.204;2023-07-29T03:08:01;3.08;;;1.83;;
10007;SDS011;5043;41.766;26.204;2023-07-29T03:10:26;4.35;;;2.15;;
10007;SDS011;5043;41.766;26.204;2023-07-29T03:12:54;3.03;;;2.35;;
10007;SDS011;5043;41.766;26.204;2023-07-29T03:15:23;5.22;;;2.40;;
10007;SDS011;5043;41.766;26.204;2023-07-29T03:17:50;3.85;;;1.98;;
10007;SDS011;5043;41.766;26.204;2023-07-29T03:20:15;2.83;;;1.83;;
10007;SDS011;5043;41.766;26.204;2023-07-29T03:22:42;2.25;;;2.05;;
10007;SDS011;5043;41.766;26.204;2023-07-29T03:25:08;6.22;;;2.13;;
10007;SDS011;5043;41.766;26.204;2023-07-29T03:27:34;2.00;;;1.80;;
10007;SDS011;5043;41.766;26.204;2023-07-29T03:30:01;4.43;;;2.00;;
10007;SDS011;5043;41.766;26.204;2023-07-29T03:32:28;2.00;;;1.90;;
10007;SDS011;5043;41.766;26.204;2023-07-29T03:34:53;7.30;;;2.38;;
10007;SDS011;5043;41.766;26.204;2023-07-29T03:37:19;3.47;;;2.70;;
10007;SDS011;5043;41.766;26.204;2023-07-29T03:39:46;7.53;;;2.67;;
10007;SDS011;5043;41.766;26.204;2023-07-29T03:42:11;2.53;;;2.33;;
10007;SDS011;5043;41.766;26.204;2023-07-29T03:44:37;4.57;;;2.65;;
10007;SDS011;5043;41.766;26.204;2023-07-29T03:47:04;5.40;;;2.45;;
10007;SDS011;5043;41.766;26.204;2023-07-29T03:49:30;2.60;;;2.40;;
10007;SDS011;5043;41.766;26.204;2023-07-29T03:51:56;2.90;;;2.28;;
10007;SDS011;5043;41.766;26.204;2023-07-29T03:54:21;26.15;;;3.22;;
10007;SDS011;5043;41.766;26.204;2023-07-29T03:56:46;4.03;;;2.28;;
10007;SDS011;5043;41.766;26.204;2023-07-29T03:59:12;4.35;;;2.38;;
10007;SDS011;5043;41.766;26.204;2023-07-29T04:01:37;4.35;;;2.67;;
10007;SDS011;5043;41.766;26.204;2023-07-29T04:04:03;3.63;;;2.67;;
10007;SDS011;5043;41.766;26.204;2023-07-29T04:06:28;4.53;;;3.10;;
10007;SDS011;5043;41.766;26.204;2023-07-29T04:08:54;4.28;;;2.70;;
10007;SDS011;5043;41.766;26.204;2023-07-29T04:11:20;5.18;;;2.42;;
10007;SDS011;5043;41.766;26.204;2023-07-29T04:13:45;2.97;;;2.40;;
10007;SDS011;5043;41.766;26.204;2023-07-29T04:16:11;6.25;;;2.67;;
10007;SDS011;5043;41.766;26.204;2023-07-29T04:18:36;7.40;;;3.20;;
10007;SDS011;5043;41.766;26.204;2023-07-29T04:21:02;3.08;;;2.35;;
10007;SDS011;5043;41.766;26.204;2023-07-29T04:23:27;4.07;;;2.30;;
10007;SDS011;5043;41.766;26.204;2023-07-29T04:25:53;4.53;;;2.70;;
10007;SDS011;5043;41.766;26.204;2023-07-29T04:28:18;3.33;;;2.53;;
10007;SDS011;5043;41.766;26.204;2023-07-29T04:30:44;3.70;;;2.78;;
10007;SDS011;5043;41.766;26.204;2023-07-29T04:33:09;3.67;;;2.13;;
10007;SDS011;5043;41.766;26.204;2023-07-29T04:35:34;10.55;;;3.70;;
10007;SDS011;5043;41.766;26.204;2023-07-29T04:38:00;5.20;;;2.63;;
10007;SDS011;5043;41.766;26.204;2023-07-29T04:40:25;4.03;;;3.17;;
10007;SDS011;5043;41.766;26.204;2023-07-29T04:42:51;3.55;;;2.88;;
10007;SDS011;5043;41.766;26.204;2023-07-29T04:45:16;4.45;;;2.65;;
10007;SDS011;5043;41.766;26.204;2023-07-29T04:47:42;5.68;;;2.47;;
10007;SDS011;5043;41.766;26.204;2023-07-29T04:50:07;3.72;;;2.97;;
10007;SDS011;5043;41.766;26.204;2023-07-29T04:52:33;3.33;;;2.65;;
10007;SDS011;5043;41.766;26.204;2023-07-29T04:54:58;4.00;;;2.35;;
10007;SDS011;5043;41.766;26.204;2023-07-29T04:57:24;3.83;;;2.58;;
10007;SDS011;5043;41.766;26.204;2023-07-29T04:59:49;5.15;;;2.70;;
10007;SDS011;5043;41.766;26.204;2023-07-29T05:02:15;4.65;;;2.90;;
10007;SDS011;5043;41.766;26.204;2023-07-29T05:04:40;6.10;;;2.95;;
10007;SDS011;5043;41.766;26.204;2023-07-29T05:07:06;4.30;;;2.85;;
10007;SDS011;5043;41.766;26.204;2023-07-29T05:09:31;3.28;;;2.75;;
10007;SDS011;5043;41.766;26.204;2023-07-29T05:11:56;5.00;;;2.97;;
10007;SDS011;5043;41.766;26.204;2023-07-29T05:14:22;5.05;;;3.30;;
10007;SDS011;5043;41.766;26.204;2023-07-29T05:16:49;5.50;;;3.10;;
10007;SDS011;5043;41.766;26.204;2023-07-29T05:19:14;4.22;;;3.25;;
10007;SDS011;5043;41.766;26.204;2023-07-29T05:21:40;6.72;;;3.00;;
10007;SDS011;5043;41.766;26.204;2023-07-29T05:24:05;5.53;;;3.30;;
10007;SDS011;5043;41.766;26.204;2023-07-29T05:26:31;3.97;;;2.88;;
10007;SDS011;5043;41.766;26.204;2023-07-29T05:28:56;7.65;;;2.78;;
10007;SDS011;5043;41.766;26.204;2023-07-29T05:31:22;4.00;;;2.85;;
10007;SDS011;5043;41.766;26.204;2023-07-29T05:33:47;4.75;;;2.95;;
10007;SDS011;5043;41.766;26.204;2023-07-29T05:36:13;5.80;;;2.70;;
10007;SDS011;5043;41.766;26.204;2023-07-29T05:38:38;4.18;;;2.25;;
10007;SDS011;5043;41.766;26.204;2023-07-29T05:41:04;5.90;;;2.60;;
10007;SDS011;5043;41.766;26.204;2023-07-29T05:43:29;8.13;;;2.75;;
10007;SDS011;5043;41.766;26.204;2023-07-29T05:45:54;3.90;;;2.80;;
10007;SDS011;5043;41.766;26.204;2023-07-29T05:48:21;3.00;;;2.45;;
10007;SDS011;5043;41.766;26.204;2023-07-29T05:50:47;7.00;;;2.58;;
10007;SDS011;5043;41.766;26.204;2023-07-29T05:53:13;3.30;;;2.67;;
10007;SDS011;5043;41.766;26.204;2023-07-29T05:55:39;3.33;;;2.58;;
10007;SDS011;5043;41.766;26.204;2023-07-29T05:58:04;3.97;;;2.67;;
10007;SDS011;5043;41.766;26.204;2023-07-29T06:00:30;3.10;;;2.60;;
10007;SDS011;5043;41.766;26.204;2023-07-29T06:02:55;3.78;;;2.55;;
10007;SDS011;5043;41.766;26.204;2023-07-29T06:05:21;3.83;;;2.47;;
10007;SDS011;5043;41.766;26.204;2023-07-29T06:07:46;4.55;;;2.45;;
10007;SDS011;5043;41.766;26.204;2023-07-29T06:10:13;5.05;;;2.70;;
10007;SDS011;5043;41.766;26.204;2023-07-29T06:12:43;4.55;;;2.58;;
10007;SDS011;5043;41.766;26.204;2023-07-29T06:15:10;5.43;;;2.90;;
10007;SDS011;5043;41.766;26.204;2023-07-29T06:17:37;3.35;;;2.80;;
10007;SDS011;5043;41.766;26.204;2023-07-29T06:20:03;4.75;;;2.58;;
10007;SDS011;5043;41.766;26.204;2023-07-29T06:22:29;5.55;;;2.55;;
10007;SDS011;5043;41.766;26.204;2023-07-29T06:24:54;3.58;;;2.58;;
10007;SDS011;5043;41.766;26.204;2023-07-29T06:27:19;4.00;;;2.67;;
10007;SDS011;5043;41.766;26.204;2023-07-29T06:29:45;3.35;;;2.38;;
10007;SDS011;5043;41.766;26.204;2023-07-29T06:32:10;2.92;;;2.35;;
10007;SDS011;5043;41.766;26.204;2023-07-29T06:34:36;2.92;;;2.42;;
10007;SDS011;5043;41.766;26.204;2023-07-29T06:37:01;5.95;;;2.55;;
10007;SDS011;5043;41.766;26.204;2023-07-29T06:39:27;5.30;;;2.92;;
10007;SDS011;5043;41.766;26.204;2023-07-29T06:41:52;4.07;;;2.65;;
10007;SDS011;5043;41.766;26.204;2023-07-29T06:44:18;6.25;;;3.33;;
10007;SDS011;5043;41.766;26.204;2023-07-29T06:46:43;4.97;;;2.90;;
10007;SDS011;5043;41.766;26.204;2023-07-29T06:49:08;3.55;;;2.60;;
10007;SDS011;5043;41.766;26.204;2023-07-29T06:51:34;5.95;;;3.30;;
10007;SDS011;5043;41.766;26.204;2023-07-29T06:54:01;9.20;;;2.90;;
10007;SDS011;5043;41.766;26.204;2023-07-29T06:56:27;3.17;;;2.83;;
10007;SDS011;5043;41.766;26.204;2023-07-29T06:58:53;4.72;;;3.10;;
10007;SDS011;5043;41.766;26.204;2023-07-29T07:01:18;7.53;;;3.28;;
10007;SDS011;5043;41.766;26.204;2023-07-29T07:03:44;3.17;;;2.88;;
10007;SDS011;5043;41.766;26.204;2023-07-29T07:06:09;3.40;;;3.08;;
10007;SDS011;5043;41.766;26.204;2023-07-29T07:08:35;6.03;;;2.80;;
10007;SDS011;5043;41.766;26.204;2023-07-29T07:11:00;3.00;;;2.70;;
10007;SDS011;5043;41.766;26.204;2023-07-29T07:13:26;4.43;;;3.03;;
10007;SDS011;5043;41.766;26.204;2023-07-29T07:15:54;4.70;;;3.17;;
10007;SDS011;5043;41.766;26.204;2023-07-29T07:18:20;8.15;;;3.13;;
10007;SDS011;5043;41.766;26.204;2023-07-29T07:20:48;6.85;;;2.95;;
10007;SDS011;5043;41.766;26.204;2023-07-29T07:23:14;3.53;;;3.22;;
10007;SDS011;5043;41.766;26.204;2023-07-29T07:25:40;3.15;;;2.67;;
10007;SDS011;5043;41.766;26.204;2023-07-29T07:28:07;7.97;;;2.67;;
10007;SDS011;5043;41.766;26.204;2023-07-29T07:30:33;2.55;;;2.35;;
10007;SDS011;5043;41.766;26.204;2023-07-29T07:32:58;4.32;;;2.90;;
10007;SDS011;5043;41.766;26.204;2023-07-29T07:35:24;3.78;;;2.80;;
10007;SDS011;5043;41.766;26.204;2023-07-29T07:37:49;5.65;;;2.47;;
10007;SDS011;5043;41.766;26.204;2023-07-29T07:40:14;3.47;;;2.53;;
10007;SDS011;5043;41.766;26.204;2023-07-29T07:42:40;7.57;;;3.00;;
10007;SDS011;5043;41.766;26.204;2023-07-29T07:45:06;9.68;;;2.58;;
10007;SDS011;5043;41.766;26.204;2023-07-29T07:47:31;2.95;;;2.63;;
10007;SDS011;5043;41.766;26.204;2023-07-29T07:49:56;3.25;;;2.20;;
10007;SDS011;5043;41.766;26.204;2023-07-29T07:52:22;3.03;;;2.45;;
10007;SDS011;5043;41.766;26.204;2023-07-29T07:54:51;3.47;;;2.10;;
10007;SDS011;5043;41.766;26.204;2023-07-29T07:57:22;8.10;;;2.63;;
10007;SDS011;5043;41.766;26.204;2023-07-29T08:02:40;5.38;;;2.78;;
10007;SDS011;5043;41.766;26.204;2023-07-29T08:05:06;4.65;;;2.13;;
10007;SDS011;5043;41.766;26.204;2023-07-29T08:07:32;3.10;;;2.58;;
10007;SDS011;5043;41.766;26.204;2023-07-29T08:09:57;3.83;;;2.30;;
10007;SDS011;5043;41.766;26.204;2023-07-29T08:12:23;2.60;;;2.40;;
10007;SDS011;5043;41.766;26.204;2023-07-29T08:14:48;2.75;;;2.03;;
10007;SDS011;5043;41.766;26.204;2023-07-29T08:17:13;5.15;;;2.50;;
10007;SDS011;5043;41.766;26.204;2023-07-29T08:19:39;2.55;;;2.28;;
10007;SDS011;5043;41.766;26.204;2023-07-29T08:22:04;2.50;;;2.17;;
10007;SDS011;5043;41.766;26.204;2023-07-29T08:24:30;4.93;;;1.95;;
10007;SDS011;5043;41.766;26.204;2023-07-29T08:26:56;3.03;;;2.38;;
10007;SDS011;5043;41.766;26.204;2023-07-29T08:29:21;2.13;;;1.95;;
10007;SDS011;5043;41.766;26.204;2023-07-29T08:31:46;2.45;;;2.00;;
10007;SDS011;5043;41.766;26.204;2023-07-29T08:34:12;2.40;;;2.10;;
10007;SDS011;5043;41.766;26.204;2023-07-29T08:36:37;4.10;;;2.35;;
10007;SDS011;5043;41.766;26.204;2023-07-29T08:39:03;4.30;;;2.15;;
10007;SDS011;5043;41.766;26.204;2023-07-29T08:41:32;5.20;;;2.50;;
10007;SDS011;5043;41.766;26.204;2023-07-29T08:44:10;9.82;;;2.95;;
10007;SDS011;5043;41.766;26.204;2023-07-29T08:46:38;4.70;;;1.90;;
10007;SDS011;5043;41.766;26.204;2023-07-29T08:49:04;2.28;;;2.08;;
10007;SDS011;5043;41.766;26.204;2023-07-29T08:51:31;2.50;;;2.30;;
10007;SDS011;5043;41.766;26.204;2023-07-29T08:53:57;6.03;;;2.47;;
10007;SDS011;5043;41.766;26.204;2023-07-29T08:56:23;2.20;;;2.00;;
10007;SDS011;5043;41.766;26.204;2023-07-29T08:58:49;3.38;;;2.08;;
10007;SDS011;5043;41.766;26.204;2023-07-29T09:01:15;2.97;;;2.22;;
10007;SDS011;5043;41.766;26.204;2023-07-29T09:03:41;2.85;;;2.13;;
10007;SDS011;5043;41.766;26.204;2023-07-29T09:06:07;2.13;;;1.90;;
10007;SDS011;5043;41.766;26.204;2023-07-29T09:08:33;2.38;;;2.17;;
10007;SDS011;5043;41.766;26.204;2023-07-29T09:10:59;2.90;;;2.38;;
10007;SDS011;5043;41.766;26.204;2023-07-29T09:13:25;3.63;;;1.90;;
10007;SDS011;5043;41.766;26.204;2023-07-29T09:15:53;3.55;;;1.85;;
10007;SDS011;5043;41.766;26.204;2023-07-29T09:18:20;2.25;;;2.05;;
10007;SDS011;5043;41.766;26.204;2023-07-29T09:20:47;4.07;;;2.50;;
10007;SDS011;5043;41.766;26.204;2023-07-29T09:23:13;3.92;;;2.13;;
10007;SDS011;5043;41.766;26.204;2023-07-29T09:25:39;2.90;;;2.10;;
10007;SDS011;5043;41.766;26.204;2023-07-29T09:28:14;2.22;;;2.00;;
10007;SDS011;5043;41.766;26.204;2023-07-29T09:30:41;2.47;;;2.13;;
10007;SDS011;5043;41.766;26.204;2023-07-29T09:33:08;2.42;;;2.22;;
10007;SDS011;5043;41.766;26.204;2023-07-29T09:35:35;2.63;;;1.77;;
10007;SDS011;5043;41.766;26.204;2023-07-29T09:38:02;4.45;;;1.95;;
10007;SDS011;5043;41.766;26.204;2023-07-29T09:40:38;2.28;;;2.08;;
10007;SDS011;5043;41.766;26.204;2023-07-29T09:43:05;6.03;;;2.10;;
10007;SDS011;5043;41.766;26.204;2023-07-29T09:45:35;6.00;;;2.05;;
10007;SDS011;5043;41.766;26.204;2023-07-29T09:48:03;2.92;;;1.85;;
10007;SDS011;5043;41.766;26.204;2023-07-29T09:50:35;2.78;;;2.00;;
10007;SDS011;5043;41.766;26.204;2023-07-29T09:53:01;2.33;;;2.10;;
10007;SDS011;5043;41.766;26.204;2023-07-29T09:55:28;4.05;;;2.03;;
10007;SDS011;5043;41.766;26.204;2023-07-29T09:57:57;6.20;;;2.67;;
10007;SDS011;5043;41.766;26.204;2023-07-29T10:00:29;3.03;;;2.40;;
10007;SDS011;5043;41.766;26.204;2023-07-29T10:02:55;7.57;;;2.08;;
10007;SDS011;5043;41.766;26.204;2023-07-29T10:05:22;3.83;;;1.95;;
10007;SDS011;5043;41.766;26.204;2023-07-29T10:07:50;2.83;;;2.13;;
10007;SDS011;5043;41.766;26.204;2023-07-29T10:10:16;2.75;;;1.85;;
10007;SDS011;5043;41.766;26.204;2023-07-29T10:12:43;4.97;;;2.10;;
10007;SDS011;5043;41.766;26.204;2023-07-29T10:15:09;3.45;;;2.00;;
10007;SDS011;5043;41.766;26.204;2023-07-29T10:17:35;4.40;;;2.80;;
10007;SDS011;5043;41.766;26.204;2023-07-29T10:20:03;2.50;;;2.10;;
10007;SDS011;5043;41.766;26.204;2023-07-29T10:22:33;2.63;;;2.03;;
10007;SDS011;5043;41.766;26.204;2023-07-29T10:25:46;3.13;;;1.98;;
10007;SDS011;5043;41.766;26.204;2023-07-29T10:27:56;2.88;;;2.60;;
10007;SDS011;5043;41.766;26.204;2023-07-29T10:30:26;3.63;;;2.20;;
10007;SDS011;5043;41.766;26.204;2023-07-29T10:32:53;3.47;;;2.03;;
10007;SDS011;5043;41.766;26.204;2023-07-29T10:35:22;3.47;;;2.10;;
10007;SDS011;5043;41.766;26.204;2023-07-29T10:37:48;3.53;;;2.10;;
10007;SDS011;5043;41.766;26.204;2023-07-29T10:40:16;3.00;;;2.22;;
10007;SDS011;5043;41.766;26.204;2023-07-29T10:43:02;3.45;;;2.13;;
10007;SDS011;5043;41.766;26.204;2023-07-29T10:45:38;2.38;;;2.20;;
10007;SDS011;5043;41.766;26.204;2023-07-29T10:48:12;2.42;;;2.22;;
10007;SDS011;5043;41.766;26.204;2023-07-29T10:54:11;2.70;;;2.22;;
10007;SDS011;5043;41.766;26.204;2023-07-29T10:56:41;2.08;;;1.80;;
10007;SDS011;5043;41.766;26.204;2023-07-29T11:01:37;2.72;;;2.35;;
10007;SDS011;5043;41.766;26.204;2023-07-29T11:09:41;3.08;;;2.38;;
10007;SDS011;5043;41.766;26.204;2023-07-29T11:20:14;3.00;;;2.10;;
10007;SDS011;5043;41.766;26.204;2023-07-29T11:22:41;1.80;;;1.70;;
10007;SDS011;5043;41.766;26.204;2023-07-29T11:25:08;2.80;;;1.90;;
10007;SDS011;5043;41.766;26.204;2023-07-29T11:27:35;2.88;;;2.35;;
10007;SDS011;5043;41.766;26.204;2023-07-29T11:30:02;1.92;;;1.83;;
10007;SDS011;5043;41.766;26.204;2023-07-29T11:32:30;2.65;;;2.13;;
10007;SDS011;5043;41.766;26.204;2023-07-29T11:34:56;2.30;;;2.13;;
10007;SDS011;5043;41.766;26.204;2023-07-29T11:37:22;2.05;;;1.70;;
10007;SDS011;5043;41.766;26.204;2023-07-29T11:39:47;10.48;;;1.90;;
10007;SDS011;5043;41.766;26.204;2023-07-29T11:42:13;2.00;;;1.85;;
10007;SDS011;5043;41.766;26.204;2023-07-29T11:44:39;5.40;;;2.05;;
10007;SDS011;5043;41.766;26.204;2023-07-29T11:47:12;3.65;;;1.83;;
10007;SDS011;5043;41.766;26.204;2023-07-29T11:49:38;2.00;;;1.85;;
10007;SDS011;5043;41.766;26.204;2023-07-29T11:52:07;2.47;;;1.63;;
10007;SDS011;5043;41.766;26.204;2023-07-29T11:54:38;4.75;;;2.22;;
10007;SDS011;5043;41.766;26.204;2023-07-29T11:57:06;2.22;;;2.00;;
10007;SDS011;5043;41.766;26.204;2023-07-29T11:59:34;2.28;;;2.05;;
10007;SDS011;5043;41.766;26.204;2023-07-29T12:02:01;4.97;;;1.60;;
10007;SDS011;5043;41.766;26.204;2023-07-29T12:04:30;3.70;;;2.05;;
10007;SDS011;5043;41.766;26.204;2023-07-29T12:06:56;4.22;;;1.85;;
10007;SDS011;5043;41.766;26.204;2023-07-29T12:09:22;1.90;;;1.80;;
10007;SDS011;5043;41.766;26.204;2023-07-29T12:11:48;1.92;;;1.83;;
10007;SDS011;5043;41.766;26.204;2023-07-29T12:14:15;4.20;;;2.40;;
10007;SDS011;5043;41.766;26.204;2023-07-29T12:16:48;5.75;;;1.65;;
10007;SDS011;5043;41.766;26.204;2023-07-29T12:19:14;1.80;;;1.60;;
10007;SDS011;5043;41.766;26.204;2023-07-29T12:21:43;3.83;;;2.15;;
10007;SDS011;5043;41.766;26.204;2023-07-29T12:24:09;2.15;;;2.05;;
10007;SDS011;5043;41.766;26.204;2023-07-29T12:26:36;2.47;;;1.80;;
10007;SDS011;5043;41.766;26.204;2023-07-29T12:29:12;3.20;;;2.08;;
10007;SDS011;5043;41.766;26.204;2023-07-29T12:31:41;2.50;;;2.20;;
10007;SDS011;5043;41.766;26.204;2023-07-29T12:34:07;2.47;;;2.10;;
10007;SDS011;5043;41.766;26.204;2023-07-29T12:41:43;3.63;;;1.63;;
10007;SDS011;5043;41.766;26.204;2023-07-29T12:44:08;2.22;;;2.00;;
10007;SDS011;5043;41.766;26.204;2023-07-29T12:46:34;2.30;;;2.10;;
10007;SDS011;5043;41.766;26.204;2023-07-29T12:48:59;1.98;;;1.88;;
10007;SDS011;5043;41.766;26.204;2023-07-29T12:51:25;2.85;;;2.00;;
10007;SDS011;5043;41.766;26.204;2023-07-29T12:53:50;2.67;;;2.10;;
10007;SDS011;5043;41.766;26.204;2023-07-29T12:56:15;3.65;;;2.20;;
10007;SDS011;5043;41.766;26.204;2023-07-29T12:58:41;3.83;;;2.30;;
10007;SDS011;5043;41.766;26.204;2023-07-29T13:01:06;2.30;;;2.10;;
10007;SDS011;5043;41.766;26.204;2023-07-29T13:03:32;1.88;;;1.77;;
10007;SDS011;5043;41.766;26.204;2023-07-29T13:05:57;2.10;;;2.00;;
10007;SDS011;5043;41.766;26.204;2023-07-29T13:08:22;5.50;;;2.35;;
10007;SDS011;5043;41.766;26.204;2023-07-29T13:10:48;3.83;;;1.90;;
10007;SDS011;5043;41.766;26.204;2023-07-29T13:13:13;1.95;;;1.83;;
10007;SDS011;5043;41.766;26.204;2023-07-29T13:15:39;3.20;;;2.22;;
10007;SDS011;5043;41.766;26.204;2023-07-29T13:18:04;2.45;;;2.22;;
10007;SDS011;5043;41.766;26.204;2023-07-29T13:20:30;2.58;;;2.30;;
10007;SDS011;5043;41.766;26.204;2023-07-29T13:22:55;2.28;;;2.00;;
10007;SDS011;5043;41.766;26.204;2023-07-29T13:25:21;2.90;;;2.10;;
10007;SDS011;5043;41.766;26.204;2023-07-29T13:27:46;2.40;;;2.17;;
10007;SDS011;5043;41.766;26.204;2023-07-29T13:30:12;3.92;;;2.60;;
10007;SDS011;5043;41.766;26.204;2023-07-29T13:32:37;2.60;;;2.40;;
10007;SDS011;5043;41.766;26.204;2023-07-29T13:35:02;3.40;;;3.20;;
10007;SDS011;5043;41.766;26.204;2023-07-29T13:37:28;3.92;;;3.63;;
10007;SDS011;5043;41.766;26.204;2023-07-29T13:39:54;3.72;;;2.63;;
10007;SDS011;5043;41.766;26.204;2023-07-29T13:42:19;2.63;;;2.42;;
10007;SDS011;5043;41.766;26.204;2023-07-29T13:44:44;3.70;;;2.90;;
10007;SDS011;5043;41.766;26.204;2023-07-29T13:47:10;3.47;;;3.17;;
10007;SDS011;5043;41.766;26.204;2023-07-29T13:49:35;3.40;;;3.20;;
10007;SDS011;5043;41.766;26.204;2023-07-29T13:52:00;3.85;;;3.22;;
10007;SDS011;5043;41.766;26.204;2023-07-29T13:54:26;3.28;;;2.97;;
10007;SDS011;5043;41.766;26.204;2023-07-29T13:56:53;4.93;;;3.75;;
10007;SDS011;5043;41.766;26.204;2023-07-29T13:59:19;4.97;;;3.95;;
10007;SDS011;5043;41.766;26.204;2023-07-29T14:01:44;4.20;;;3.90;;
10007;SDS011;5043;41.766;26.204;2023-07-29T14:04:09;4.70;;;4.40;;
10007;SDS011;5043;41.766;26.204;2023-07-29T14:06:35;5.20;;;4.80;;
10007;SDS011;5043;41.766;26.204;2023-07-29T14:09:00;4.53;;;4.32;;
10007;SDS011;5043;41.766;26.204;2023-07-29T14:11:26;4.13;;;3.92;;
10007;SDS011;5043;41.766;26.204;2023-07-29T14:13:51;4.55;;;3.90;;
10007;SDS011;5043;41.766;26.204;2023-07-29T14:16:17;3.80;;;3.50;;
10007;SDS011;5043;41.766;26.204;2023-07-29T14:18:42;3.60;;;3.30;;
10007;SDS011;5043;41.766;26.204;2023-07-29T14:21:07;3.95;;;3.75;;
10007;SDS011;5043;41.766;26.204;2023-07-29T14:23:33;3.17;;;3.00;;
10007;SDS011;5043;41.766;26.204;2023-07-29T14:25:58;3.33;;;3.13;;
10007;SDS011;5043;41.766;26.204;2023-07-29T14:28:23;3.25;;;3.15;;
10007;SDS011;5043;41.766;26.204;2023-07-29T14:30:49;2.90;;;2.70;;
10007;SDS011;5043;41.766;26.204;2023-07-29T14:33:14;3.42;;;3.13;;
10007;SDS011;5043;41.766;26.204;2023-07-29T14:35:40;3.15;;;2.92;;
10007;SDS011;5043;41.766;26.204;2023-07-29T14:38:05;3.30;;;3.10;;
10007;SDS011;5043;41.766;26.204;2023-07-29T14:40:30;2.78;;;2.67;;
10007;SDS011;5043;41.766;26.204;2023-07-29T14:42:56;4.18;;;2.40;;
10007;SDS011;5043;41.766;26.204;2023-07-29T14:45:21;2.50;;;2.30;;
10007;SDS011;5043;41.766;26.204;2023-07-29T14:47:47;1.95;;;1.85;;
10007;SDS011;5043;41.766;26.204;2023-07-29T14:50:12;6.18;;;2.30;;
10007;SDS011;5043;41.766;26.204;2023-07-29T14:52:37;1.67;;;1.58;;
10007;SDS011;5043;41.766;26.204;2023-07-29T14:55:03;3.28;;;1.60;;
10007;SDS011;5043;41.766;26.204;2023-07-29T14:57:29;1.90;;;1.80;;
10007;SDS011;5043;41.766;26.204;2023-07-29T14:59:54;3.15;;;1.70;;
10007;SDS011;5043;41.766;26.204;2023-07-29T15:02:20;3.00;;;1.52;;
10007;SDS011;5043;41.766;26.204;2023-07-29T15:04:47;5.00;;;1.70;;
10007;SDS011;5043;41.766;26.204;2023-07-29T15:07:12;1.60;;;1.50;;
10007;SDS011;5043;41.766;26.204;2023-07-29T15:09:38;1.50;;;1.40;;
10007;SDS011;5043;41.766;26.204;2023-07-29T15:12:03;1.60;;;1.50;;
10007;SDS011;5043;41.766;26.204;2023-07-29T15:14:29;4.25;;;1.75;;
10007;SDS011;5043;41.766;26.204;2023-07-29T15:16:54;1.52;;;1.40;;